Time;durP1;ratioP1;P1;durP2;ratioP2;P2;SDS_P1;SDS_P2;PMS_P1;PMS_P2;Temp;Humidity;BMP_temperature;BMP_pressure;BME280_temperature;BME280_humidity;BME280_pressure;Samples;Min_cycle;Max_cycle;Signal;HPM_P1;HPM_P2
2023/12/21 00:00:32;;;;;;;1.80;1.53;;;7.70;99.90;;;;;;5073580;28;20580;-81
2023/12/21 00:03:00;;;;;;;1.37;1.23;;;7.80;99.90;;;;;;5074877;28;20202;-81
2023/12/21 00:05:27;;;;;;;1.93;1.63;;;7.80;99.90;;;;;;5077708;28;20258;-81
2023/12/21 00:07:54;;;;;;;1.70;1.60;;;7.80;99.90;;;;;;5075639;28;20279;-81
2023/12/21 00:10:21;;;;;;;1.53;1.43;;;7.90;99.90;;;;;;5072014;28;20238;-81
2023/12/21 00:12:48;;;;;;;1.73;1.47;;;7.90;99.90;;;;;;5073714;28;20226;-80
2023/12/21 00:15:15;;;;;;;1.70;1.60;;;7.90;99.90;;;;;;5078559;28;20195;-81
2023/12/21 00:17:42;;;;;;;1.60;1.50;;;7.90;99.90;;;;;;5070607;28;20203;-80
2023/12/21 00:20:11;;;;;;;1.40;1.30;;;8.10;99.90;;;;;;5064540;28;20656;-80
2023/12/21 00:22:37;;;;;;;2.07;1.47;;;8.00;99.90;;;;;;5073395;28;20266;-81
2023/12/21 00:25:05;;;;;;;1.53;1.43;;;8.00;99.90;;;;;;5059481;28;20334;-82
2023/12/21 00:27:32;;;;;;;2.30;1.37;;;8.00;99.90;;;;;;5072801;28;20210;-81
2023/12/21 00:29:59;;;;;;;1.33;1.20;;;8.00;99.90;;;;;;5073664;28;20203;-81
2023/12/21 00:32:26;;;;;;;1.27;1.17;;;8.00;99.90;;;;;;5073616;28;20261;-81
2023/12/21 00:34:53;;;;;;;1.00;1.00;;;8.00;99.90;;;;;;5077604;28;20293;-81
2023/12/21 00:37:22;;;;;;;1.10;1.00;;;8.00;99.90;;;;;;5073215;28;20194;-81
2023/12/21 00:39:49;;;;;;;1.07;1.07;;;8.00;99.90;;;;;;5062166;28;20195;-81
2023/12/21 00:42:15;;;;;;;1.37;1.00;;;8.00;99.90;;;;;;5064805;28;20250;-81
2023/12/21 00:44:43;;;;;;;1.47;1.37;;;8.00;99.90;;;;;;5068340;28;20263;-81
2023/12/21 00:47:10;;;;;;;1.50;1.40;;;8.00;99.90;;;;;;5060915;28;20207;-81
2023/12/21 00:49:37;;;;;;;1.60;1.50;;;8.00;99.90;;;;;;5075244;28;20306;-81
2023/12/21 00:52:04;;;;;;;1.40;1.30;;;8.00;99.90;;;;;;5076947;28;20291;-81
2023/12/21 00:54:33;;;;;;;3.00;1.20;;;7.90;99.90;;;;;;5063739;28;20207;-81
2023/12/21 00:57:00;;;;;;;2.07;1.03;;;7.90;99.90;;;;;;5065485;28;20357;-80
2023/12/21 00:59:26;;;;;;;1.13;1.10;;;7.90;99.90;;;;;;5073671;28;20202;-81
2023/12/21 01:01:53;;;;;;;1.50;1.40;;;7.90;99.90;;;;;;5065802;28;20258;-80
2023/12/21 01:04:20;;;;;;;1.33;1.23;;;7.80;99.90;;;;;;5074893;28;20573;-81
2023/12/21 01:06:47;;;;;;;1.10;1.10;;;7.80;99.90;;;;;;5075171;28;20206;-80
2023/12/21 01:09:14;;;;;;;1.10;1.10;;;7.80;99.90;;;;;;5067690;28;20226;-81
2023/12/21 01:11:42;;;;;;;1.50;1.20;;;7.80;99.90;;;;;;5075274;28;20223;-81
2023/12/21 01:14:09;;;;;;;1.40;1.30;;;7.80;99.90;;;;;;5072401;28;20199;-81
2023/12/21 01:16:36;;;;;;;2.70;1.23;;;7.80;99.90;;;;;;5076235;28;20233;-81
2023/12/21 01:19:03;;;;;;;0.67;0.67;;;7.80;99.90;;;;;;5075195;28;20202;-81
2023/12/21 01:21:30;;;;;;;0.80;0.80;;;7.70;99.90;;;;;;5075360;28;20712;-80
2023/12/21 01:23:56;;;;;;;1.20;1.20;;;7.80;99.90;;;;;;5067606;28;20285;-81
2023/12/21 01:26:23;;;;;;;1.80;1.00;;;7.70;99.90;;;;;;5068149;28;20226;-81
2023/12/21 01:28:51;;;;;;;0.60;0.60;;;7.80;99.90;;;;;;5076781;28;20198;-81
2023/12/21 01:31:19;;;;;;;0.93;0.93;;;7.80;99.90;;;;;;5070050;28;20261;-81
2023/12/21 01:33:46;;;;;;;1.33;0.60;;;7.80;99.90;;;;;;5065007;28;20237;-82
2023/12/21 01:36:13;;;;;;;0.67;0.67;;;7.80;99.90;;;;;;5072167;28;20608;-81
2023/12/21 01:38:40;;;;;;;0.70;0.70;;;7.80;99.90;;;;;;5059176;28;20743;-81
2023/12/21 01:41:06;;;;;;;0.93;0.93;;;7.80;99.90;;;;;;5066457;28;20305;-82
2023/12/21 01:43:34;;;;;;;1.00;0.97;;;7.80;99.90;;;;;;5070001;28;20233;-81
2023/12/21 01:46:04;;;;;;;0.80;0.70;;;7.80;99.90;;;;;;5070975;28;20301;-82
2023/12/21 01:48:32;;;;;;;0.60;0.60;;;7.80;99.90;;;;;;5073875;28;20206;-81
2023/12/21 01:51:00;;;;;;;0.70;0.70;;;7.80;99.90;;;;;;5069680;28;20789;-81
2023/12/21 01:53:27;;;;;;;0.97;0.97;;;7.80;99.90;;;;;;5058923;28;20203;-82
2023/12/21 01:55:54;;;;;;;0.93;0.93;;;7.80;99.90;;;;;;5070884;28;20206;-82
2023/12/21 01:58:22;;;;;;;0.83;0.83;;;7.80;99.90;;;;;;5069990;28;20226;-82
2023/12/21 02:00:49;;;;;;;0.70;0.70;;;7.80;99.90;;;;;;5066056;28;20330;-81
2023/12/21 02:03:17;;;;;;;1.17;1.07;;;7.90;99.90;;;;;;5075641;28;20252;-80
2023/12/21 02:05:44;;;;;;;1.67;0.83;;;7.90;99.90;;;;;;5065744;28;20880;-81
2023/12/21 02:08:12;;;;;;;0.77;0.77;;;7.80;99.90;;;;;;5066025;28;20199;-82
2023/12/21 02:10:40;;;;;;;1.97;1.07;;;7.80;99.90;;;;;;5063036;28;20231;-80
2023/12/21 02:13:07;;;;;;;1.27;1.17;;;7.90;99.90;;;;;;5068457;28;20226;-81
2023/12/21 02:15:34;;;;;;;1.07;1.07;;;7.90;99.90;;;;;;5066720;28;20194;-81
2023/12/21 02:18:03;;;;;;;0.90;0.90;;;7.90;99.90;;;;;;5079509;28;20230;-82
2023/12/21 02:20:32;;;;;;;3.63;1.10;;;7.90;99.90;;;;;;5074938;28;20202;-82
2023/12/21 02:23:03;;;;;;;0.80;0.80;;;7.90;99.90;;;;;;5067422;28;20211;-82
2023/12/21 02:25:32;;;;;;;0.87;0.87;;;8.00;99.90;;;;;;5070561;28;20225;-80
2023/12/21 02:27:59;;;;;;;0.80;0.80;;;8.00;99.90;;;;;;5064272;28;20251;-81
2023/12/21 02:30:25;;;;;;;1.13;1.07;;;8.00;99.90;;;;;;5066516;28;20226;-81
2023/12/21 02:32:52;;;;;;;1.03;1.03;;;8.00;99.90;;;;;;5072878;28;20220;-81
2023/12/21 02:35:19;;;;;;;1.07;0.97;;;7.90;99.90;;;;;;5075001;28;20680;-81
2023/12/21 02:37:46;;;;;;;1.87;1.10;;;8.00;99.90;;;;;;5069024;28;20585;-81
2023/12/21 02:40:13;;;;;;;1.00;1.00;;;8.10;99.90;;;;;;5074638;28;20269;-81
2023/12/21 02:42:41;;;;;;;1.20;1.10;;;8.00;99.90;;;;;;5057874;28;20673;-81
2023/12/21 02:45:09;;;;;;;0.90;0.90;;;8.00;99.90;;;;;;5068810;28;20309;-82
2023/12/21 02:47:36;;;;;;;1.40;1.07;;;8.10;99.90;;;;;;5073353;28;20285;-82
2023/12/21 02:50:03;;;;;;;1.53;1.43;;;8.10;99.90;;;;;;5075851;28;20301;-82
2023/12/21 02:52:30;;;;;;;1.57;1.47;;;8.10;99.90;;;;;;5075003;28;20262;-81
2023/12/21 02:54:56;;;;;;;1.77;1.67;;;8.10;99.90;;;;;;5068213;28;20201;-81
2023/12/21 02:57:23;;;;;;;2.00;1.83;;;8.10;99.90;;;;;;5069956;28;20588;-81
2023/12/21 02:59:52;;;;;;;2.30;2.10;;;8.10;99.90;;;;;;5071136;28;20232;-81
2023/12/21 03:02:18;;;;;;;1.77;1.67;;;8.00;99.90;;;;;;5062568;28;20342;-80
2023/12/21 03:04:45;;;;;;;2.13;1.87;;;8.10;99.90;;;;;;5070761;28;20256;-82
2023/12/21 03:07:12;;;;;;;1.97;1.77;;;8.10;99.90;;;;;;5064175;28;20379;-81
2023/12/21 03:09:39;;;;;;;2.90;2.00;;;8.10;99.90;;;;;;5068444;28;20230;-81
2023/12/21 03:12:07;;;;;;;2.53;1.90;;;8.10;99.90;;;;;;5072206;28;20239;-81
2023/12/21 03:14:34;;;;;;;2.70;2.13;;;8.10;99.90;;;;;;5067800;28;20311;-80
2023/12/21 03:17:01;;;;;;;2.60;2.20;;;8.10;99.90;;;;;;5075482;28;20230;-81
2023/12/21 03:19:28;;;;;;;2.90;2.00;;;8.20;99.90;;;;;;5075294;28;20207;-81
2023/12/21 03:21:54;;;;;;;2.50;2.30;;;8.20;99.90;;;;;;5072810;28;20220;-81
2023/12/21 03:24:21;;;;;;;2.87;2.27;;;8.20;99.90;;;;;;5065045;28;20273;-81
2023/12/21 03:26:48;;;;;;;2.40;2.20;;;8.20;99.90;;;;;;5069877;28;20214;-81
2023/12/21 03:29:16;;;;;;;2.80;2.40;;;8.10;99.90;;;;;;5057896;28;20242;-81
2023/12/21 03:31:43;;;;;;;2.20;2.00;;;8.20;99.90;;;;;;5071044;28;20226;-82
2023/12/21 03:34:11;;;;;;;2.40;2.20;;;8.30;99.90;;;;;;5068207;28;20203;-80
2023/12/21 03:36:38;;;;;;;3.00;2.30;;;8.20;99.90;;;;;;5059506;28;20218;-82
2023/12/21 03:39:05;;;;;;;2.07;1.67;;;8.30;99.90;;;;;;5069943;28;20205;-80
2023/12/21 03:41:32;;;;;;;3.10;2.10;;;8.30;99.90;;;;;;5073422;28;20361;-81
2023/12/21 03:43:59;;;;;;;1.83;1.70;;;8.30;99.90;;;;;;5067401;28;20381;-82
2023/12/21 03:46:26;;;;;;;2.40;2.20;;;8.30;99.90;;;;;;5076777;28;20756;-80
2023/12/21 03:48:52;;;;;;;1.90;1.80;;;8.20;99.90;;;;;;5068572;28;20213;-81
2023/12/21 03:51:21;;;;;;;1.57;1.47;;;8.30;99.90;;;;;;5074649;28;20298;-81
2023/12/21 03:53:47;;;;;;;1.90;1.80;;;8.40;99.90;;;;;;5063005;28;20290;-81
2023/12/21 03:56:14;;;;;;;1.67;1.57;;;8.50;99.90;;;;;;5069695;28;20199;-81
2023/12/21 03:58:41;;;;;;;3.10;1.70;;;8.40;99.90;;;;;;5066725;28;20300;-81
2023/12/21 04:01:08;;;;;;;1.83;1.70;;;8.40;99.90;;;;;;5073163;28;20230;-81
2023/12/21 04:03:35;;;;;;;4.00;2.07;;;8.40;99.90;;;;;;5065325;28;20203;-80
2023/12/21 04:06:02;;;;;;;1.90;1.80;;;8.40;99.90;;;;;;5076235;28;20257;-80
2023/12/21 04:08:30;;;;;;;3.40;2.53;;;8.40;99.90;;;;;;5069821;28;20241;-80
2023/12/21 04:10:57;;;;;;;3.30;2.30;;;8.40;99.90;;;;;;5063904;28;20253;-81
2023/12/21 04:13:24;;;;;;;2.03;1.90;;;8.40;99.90;;;;;;5066604;28;20286;-80
2023/12/21 04:15:51;;;;;;;2.33;1.97;;;8.40;99.90;;;;;;5070870;28;20337;-80
2023/12/21 04:18:18;;;;;;;2.87;2.20;;;8.40;99.90;;;;;;5072741;28;20200;-80
2023/12/21 04:20:45;;;;;;;5.23;3.40;;;8.40;99.90;;;;;;5075228;28;20726;-81
2023/12/21 04:23:12;;;;;;;2.53;2.33;;;8.40;99.90;;;;;;5078801;28;20281;-80
2023/12/21 04:25:40;;;;;;;2.30;2.10;;;8.40;99.90;;;;;;5078025;28;20339;-82
2023/12/21 04:28:07;;;;;;;2.87;2.30;;;8.50;99.90;;;;;;5076856;28;20683;-80
2023/12/21 04:30:34;;;;;;;2.30;2.03;;;8.30;99.90;;;;;;5077849;28;20237;-83
2023/12/21 04:33:01;;;;;;;2.40;1.97;;;8.50;99.90;;;;;;5074238;28;20289;-81
2023/12/21 04:35:28;;;;;;;3.13;2.53;;;8.60;99.90;;;;;;5070142;28;20298;-81
2023/12/21 04:37:55;;;;;;;2.40;2.10;;;8.70;99.90;;;;;;5071547;28;20614;-81
2023/12/21 04:40:21;;;;;;;2.67;2.40;;;8.70;99.90;;;;;;5073691;28;20210;-81
2023/12/21 04:42:55;;;;;;;2.87;2.20;;;8.60;99.90;;;;;;5065499;28;20618;-80
2023/12/21 04:45:23;;;;;;;2.63;2.40;;;8.70;99.90;;;;;;5059281;28;20207;-81
2023/12/21 04:47:50;;;;;;;2.37;2.17;;;8.60;99.90;;;;;;5073086;28;20195;-80
2023/12/21 04:50:18;;;;;;;2.43;2.23;;;8.70;99.90;;;;;;5060108;28;20337;-81
2023/12/21 04:52:45;;;;;;;2.33;2.13;;;8.60;99.90;;;;;;5065138;28;20309;-80
2023/12/21 04:55:12;;;;;;;2.27;2.00;;;8.70;99.90;;;;;;5064487;28;20545;-81
2023/12/21 04:57:39;;;;;;;2.77;2.33;;;8.80;99.90;;;;;;5071895;28;20649;-80
2023/12/21 05:00:10;;;;;;;2.63;2.43;;;8.80;99.90;;;;;;5075038;28;20198;-81
2023/12/21 05:02:37;;;;;;;2.77;2.50;;;8.80;99.90;;;;;;5069268;28;20222;-80
2023/12/21 05:05:04;;;;;;;2.70;2.50;;;8.80;99.90;;;;;;5067286;28;20195;-81
2023/12/21 05:07:30;;;;;;;3.03;2.40;;;8.80;99.90;;;;;;5065405;28;20724;-81
2023/12/21 05:09:59;;;;;;;2.70;2.50;;;8.90;99.90;;;;;;5066188;28;20197;-80
2023/12/21 05:12:26;;;;;;;2.83;2.53;;;8.90;99.90;;;;;;5065136;28;20238;-81
2023/12/21 05:14:53;;;;;;;4.23;2.80;;;8.90;99.90;;;;;;5065784;28;20571;-80
2023/12/21 05:17:22;;;;;;;2.70;2.50;;;9.00;99.90;;;;;;5067069;28;20607;-80
2023/12/21 05:19:48;;;;;;;3.40;2.90;;;9.00;99.90;;;;;;5069903;28;20222;-80
2023/12/21 05:22:15;;;;;;;3.63;2.83;;;9.00;99.90;;;;;;5066049;28;20522;-81
2023/12/21 05:24:42;;;;;;;2.97;2.67;;;9.10;99.90;;;;;;5072204;28;20195;-80
2023/12/21 05:27:09;;;;;;;4.13;2.90;;;9.10;99.90;;;;;;5069365;28;20222;-80
2023/12/21 05:29:36;;;;;;;3.83;3.23;;;9.00;99.90;;;;;;5070559;28;20620;-81
2023/12/21 05:32:03;;;;;;;4.87;2.73;;;9.00;99.90;;;;;;5073172;28;20313;-81
2023/12/21 05:34:31;;;;;;;3.37;2.67;;;9.10;99.90;;;;;;5072904;28;20195;-80
2023/12/21 05:36:59;;;;;;;3.30;3.00;;;9.00;99.90;;;;;;5073130;28;20595;-80
2023/12/21 05:39:27;;;;;;;3.10;2.80;;;9.10;99.90;;;;;;5069886;28;20653;-82
2023/12/21 05:41:54;;;;;;;2.60;2.40;;;9.10;99.90;;;;;;5075021;28;20224;-81
2023/12/21 05:44:20;;;;;;;2.40;2.20;;;9.20;99.90;;;;;;5075013;28;20203;-80
2023/12/21 05:46:47;;;;;;;2.73;2.43;;;9.10;99.90;;;;;;5066018;28;20240;-80
2023/12/21 05:49:14;;;;;;;3.30;2.60;;;9.10;99.90;;;;;;5074225;28;20237;-80
2023/12/21 05:51:42;;;;;;;4.03;2.60;;;9.20;99.90;;;;;;5069797;28;20226;-81
2023/12/21 05:54:09;;;;;;;2.10;2.00;;;9.10;99.90;;;;;;5068552;28;20281;-81
2023/12/21 05:56:36;;;;;;;2.50;2.30;;;9.00;99.90;;;;;;5066362;28;20294;-81
2023/12/21 05:59:03;;;;;;;2.83;2.57;;;8.90;99.90;;;;;;5070192;28;20616;-80
2023/12/21 06:01:30;;;;;;;2.60;2.40;;;9.00;99.90;;;;;;5066153;28;20231;-81
2023/12/21 06:03:57;;;;;;;3.27;2.33;;;8.90;99.90;;;;;;5058977;28;20234;-80
2023/12/21 06:06:24;;;;;;;2.73;2.50;;;8.90;99.90;;;;;;5060897;28;20700;-80
2023/12/21 06:08:52;;;;;;;2.80;1.90;;;9.00;99.90;;;;;;5067378;28;20627;-80
2023/12/21 06:11:19;;;;;;;3.70;2.60;;;8.90;99.90;;;;;;5065223;28;20214;-80
2023/12/21 06:13:46;;;;;;;2.53;2.33;;;9.00;99.90;;;;;;5066970;28;20222;-81
2023/12/21 06:16:14;;;;;;;2.40;2.20;;;9.00;99.90;;;;;;5062968;28;20244;-80
2023/12/21 06:18:41;;;;;;;3.47;2.20;;;9.00;99.90;;;;;;5068291;28;20216;-80
2023/12/21 06:21:08;;;;;;;3.07;2.40;;;8.90;99.90;;;;;;5062193;28;20225;-81
2023/12/21 06:23:35;;;;;;;3.50;2.70;;;9.00;99.90;;;;;;5066012;28;20298;-81
2023/12/21 06:26:03;;;;;;;3.00;2.70;;;8.90;99.90;;;;;;5066342;28;20226;-81
2023/12/21 06:28:30;;;;;;;3.13;2.67;;;8.90;99.90;;;;;;5067159;28;20639;-81
2023/12/21 06:30:57;;;;;;;2.60;2.40;;;8.90;99.90;;;;;;5069383;28;20297;-81
2023/12/21 06:33:24;;;;;;;3.63;2.77;;;8.90;99.90;;;;;;5067378;28;20206;-80
2023/12/21 06:35:51;;;;;;;3.97;3.20;;;8.90;99.90;;;;;;5070561;28;20289;-80
2023/12/21 06:38:18;;;;;;;3.20;2.87;;;8.90;99.90;;;;;;5072013;28;20194;-81
2023/12/21 06:40:45;;;;;;;3.03;2.50;;;8.90;99.90;;;;;;5073086;28;20230;-81
2023/12/21 06:43:13;;;;;;;3.77;2.93;;;8.90;99.90;;;;;;5071440;28;20233;-82
2023/12/21 06:45:40;;;;;;;3.43;2.60;;;9.00;99.90;;;;;;5064345;28;20579;-80
2023/12/21 06:48:10;;;;;;;3.70;2.37;;;8.90;99.90;;;;;;5072418;28;20680;-80
2023/12/21 06:50:37;;;;;;;2.50;2.30;;;8.90;99.90;;;;;;5071863;28;20238;-81
2023/12/21 06:53:04;;;;;;;2.60;2.40;;;8.80;99.90;;;;;;5073457;28;20194;-80
2023/12/21 06:55:31;;;;;;;2.00;1.80;;;8.80;99.90;;;;;;5064694;28;20289;-81
2023/12/21 06:57:58;;;;;;;1.80;1.70;;;8.90;99.90;;;;;;5055799;28;20678;-80
2023/12/21 07:00:26;;;;;;;1.87;1.70;;;8.90;99.90;;;;;;5065144;28;20260;-81
2023/12/21 07:02:53;;;;;;;1.50;1.40;;;8.90;99.90;;;;;;5057199;28;20235;-82
2023/12/21 07:05:21;;;;;;;1.53;1.43;;;9.00;99.90;;;;;;5062906;28;20733;-80
2023/12/21 07:07:48;;;;;;;1.47;1.03;;;8.90;99.90;;;;;;5065413;28;20222;-81
2023/12/21 07:10:15;;;;;;;1.50;1.40;;;9.00;99.90;;;;;;5062760;28;20203;-81
2023/12/21 07:12:42;;;;;;;1.20;1.10;;;9.10;99.90;;;;;;5065817;28;20306;-80
2023/12/21 07:15:09;;;;;;;1.67;1.20;;;9.00;99.90;;;;;;5075363;28;20194;-81
2023/12/21 07:17:38;;;;;;;1.10;1.10;;;9.00;99.90;;;;;;5062319;28;20672;-80
2023/12/21 07:20:06;;;;;;;0.87;0.87;;;9.00;99.90;;;;;;5069967;28;20631;-80
2023/12/21 07:22:34;;;;;;;1.00;0.80;;;9.20;99.90;;;;;;5065379;28;20258;-80
2023/12/21 07:25:01;;;;;;;0.80;0.80;;;9.20;99.90;;;;;;5068899;28;20209;-81
2023/12/21 07:27:28;;;;;;;0.60;0.60;;;9.30;99.90;;;;;;5070635;28;20218;-81
2023/12/21 07:29:54;;;;;;;0.73;0.73;;;9.30;99.90;;;;;;5074545;28;20732;-81
2023/12/21 07:32:21;;;;;;;0.60;0.60;;;9.30;99.90;;;;;;5074543;28;20223;-80
2023/12/21 07:34:50;;;;;;;0.53;0.53;;;9.30;99.90;;;;;;5072366;28;20198;-81
2023/12/21 07:37:17;;;;;;;0.80;0.80;;;9.40;99.90;;;;;;5073594;28;20669;-80
2023/12/21 07:39:44;;;;;;;0.63;0.63;;;9.40;99.90;;;;;;5076269;28;20204;-80
2023/12/21 07:42:11;;;;;;;1.23;0.47;;;9.40;99.90;;;;;;5077883;28;20236;-81
2023/12/21 07:44:38;;;;;;;0.70;0.50;;;9.50;1.00;;;;;;5068214;28;20574;-80
2023/12/21 07:47:05;;;;;;;0.40;0.40;;;9.50;1.00;;;;;;5071919;28;20222;-80
2023/12/21 07:49:32;;;;;;;0.70;0.70;;;9.60;1.00;;;;;;5060270;28;20209;-80
2023/12/21 07:52:00;;;;;;;0.50;0.50;;;9.60;1.00;;;;;;5062345;28;20222;-81
2023/12/21 07:54:27;;;;;;;0.33;0.33;;;9.50;1.00;;;;;;5078378;28;20204;-81
2023/12/21 07:56:54;;;;;;;0.70;0.70;;;9.50;1.00;;;;;;5077136;28;20607;-81
2023/12/21 07:59:22;;;;;;;0.50;0.50;;;9.50;99.90;;;;;;5063335;28;20217;-81
2023/12/21 08:01:49;;;;;;;0.27;0.27;;;9.50;99.90;;;;;;5058873;28;20222;-80
2023/12/21 08:04:16;;;;;;;0.60;0.60;;;9.50;1.00;;;;;;5058838;28;20651;-82
2023/12/21 08:06:43;;;;;;;0.47;0.47;;;9.50;99.90;;;;;;5058917;28;20223;-80
2023/12/21 08:09:11;;;;;;;0.40;0.40;;;9.50;1.00;;;;;;5058956;28;20253;-80
2023/12/21 08:11:38;;;;;;;0.40;0.40;;;9.50;1.00;;;;;;5059888;28;20262;-79
2023/12/21 08:14:05;;;;;;;0.40;0.40;;;9.60;99.90;;;;;;5059990;28;20255;-81
2023/12/21 08:16:32;;;;;;;0.50;0.50;;;9.70;1.00;;;;;;5065879;28;20226;-80
2023/12/21 08:18:59;;;;;;;0.50;0.50;;;9.60;1.00;;;;;;5071457;28;20650;-80
2023/12/21 08:21:26;;;;;;;0.27;0.27;;;9.60;1.00;;;;;;5070145;28;20222;-80
2023/12/21 08:23:53;;;;;;;0.40;0.40;;;9.60;99.90;;;;;;5069797;28;20285;-81
2023/12/21 08:26:22;;;;;;;0.40;0.40;;;9.60;1.00;;;;;;5062498;28;20223;-82
2023/12/21 08:28:48;;;;;;;0.50;0.40;;;9.70;50.60;;;;;;5070643;28;20289;-81
2023/12/21 08:31:24;;;;;;;0.20;0.20;;;9.80;1.00;;;;;;5069359;28;20245;-80
2023/12/21 08:33:51;;;;;;;0.40;0.40;;;9.80;1.00;;;;;;5060408;28;20203;-81
2023/12/21 08:36:19;;;;;;;1.07;0.97;;;9.70;1.00;;;;;;5069927;28;20230;-80
2023/12/21 08:38:45;;;;;;;1.27;0.30;;;9.70;1.00;;;;;;5070655;28;20290;-82
2023/12/21 08:41:12;;;;;;;0.50;0.50;;;9.70;1.00;;;;;;5073794;28;20312;-81
2023/12/21 08:43:41;;;;;;;0.50;0.27;;;9.70;1.00;;;;;;5070884;28;20205;-81
2023/12/21 08:46:07;;;;;;;0.83;0.60;;;9.70;99.90;;;;;;5070868;28;20199;-80
2023/12/21 08:48:34;;;;;;;1.50;0.67;;;9.60;1.00;;;;;;5071609;28;20317;-80
2023/12/21 08:51:01;;;;;;;0.83;0.57;;;9.40;99.90;;;;;;5074048;28;20222;-81
2023/12/21 08:53:28;;;;;;;0.77;0.77;;;9.50;99.90;;;;;;5072392;28;20285;-83
2023/12/21 08:55:55;;;;;;;0.70;0.70;;;9.30;99.90;;;;;;5071188;28;20302;-80
2023/12/21 08:58:22;;;;;;;0.90;0.90;;;9.30;99.90;;;;;;5070601;28;20648;-80
2023/12/21 09:00:51;;;;;;;0.60;0.60;;;9.30;99.90;;;;;;5074165;28;20222;-80
2023/12/21 09:03:19;;;;;;;2.33;0.97;;;9.20;99.90;;;;;;5075078;28;20293;-81
2023/12/21 09:05:46;;;;;;;0.70;0.70;;;9.20;99.90;;;;;;5057737;28;20202;-81
2023/12/21 09:08:13;;;;;;;0.73;0.73;;;9.20;99.90;;;;;;5068141;28;20316;-81
2023/12/21 09:10:40;;;;;;;1.23;1.13;;;9.20;99.90;;;;;;5068329;28;20245;-81
2023/12/21 09:13:07;;;;;;;2.00;0.87;;;9.20;99.90;;;;;;5061504;28;20227;-81
2023/12/21 09:15:36;;;;;;;0.97;0.97;;;9.20;99.90;;;;;;5059322;28;20218;-80
2023/12/21 09:18:06;;;;;;;1.37;1.00;;;9.20;99.90;;;;;;5067488;28;20191;-80
2023/12/21 09:20:33;;;;;;;1.63;1.20;;;9.20;99.90;;;;;;5061533;28;20286;-81
2023/12/21 09:23:00;;;;;;;1.37;1.27;;;9.20;99.90;;;;;;5064678;28;20203;-81
2023/12/21 09:25:27;;;;;;;2.83;2.00;;;9.30;99.90;;;;;;5066360;28;20227;-81
2023/12/21 09:27:54;;;;;;;1.53;1.43;;;9.20;99.90;;;;;;5067035;28;20240;-81
2023/12/21 09:30:25;;;;;;;1.70;1.40;;;9.20;99.90;;;;;;5069171;28;20198;-81
2023/12/21 09:32:52;;;;;;;1.30;1.20;;;9.30;99.90;;;;;;5064788;28;20294;-82
2023/12/21 09:35:20;;;;;;;1.27;1.17;;;9.20;99.90;;;;;;5071102;28;20242;-81
2023/12/21 09:37:47;;;;;;;1.30;1.20;;;9.30;99.90;;;;;;5066810;28;20551;-82
2023/12/21 09:40:15;;;;;;;1.67;1.53;;;9.30;99.90;;;;;;5067899;28;20390;-81
2023/12/21 09:42:44;;;;;;;2.60;1.77;;;9.40;99.90;;;;;;5066729;28;20285;-83
2023/12/21 09:45:12;;;;;;;2.90;1.60;;;9.40;99.90;;;;;;5069822;28;20230;-81
2023/12/21 09:47:40;;;;;;;2.23;1.33;;;9.40;99.90;;;;;;5070860;28;20225;-80
2023/12/21 09:50:08;;;;;;;1.73;1.63;;;9.40;99.90;;;;;;5073220;28;20241;-81
2023/12/21 09:52:39;;;;;;;3.00;2.00;;;9.40;99.90;;;;;;5070750;28;20261;-82
2023/12/21 09:55:08;;;;;;;1.70;1.43;;;9.40;99.90;;;;;;5066550;28;20263;-81
2023/12/21 09:57:37;;;;;;;2.73;1.80;;;9.40;99.90;;;;;;5073857;28;20206;-80
2023/12/21 10:00:05;;;;;;;2.33;1.80;;;9.40;99.90;;;;;;5074072;28;20256;-82
2023/12/21 10:02:32;;;;;;;1.53;1.33;;;9.30;99.90;;;;;;5074233;28;20772;-81
2023/12/21 10:04:59;;;;;;;2.37;1.70;;;9.40;99.90;;;;;;5065585;28;20629;-82
2023/12/21 10:07:26;;;;;;;1.73;1.43;;;9.50;99.90;;;;;;5068696;28;20251;-81
2023/12/21 10:09:54;;;;;;;1.83;1.50;;;9.60;99.90;;;;;;5071854;28;20639;-82
2023/12/21 10:12:21;;;;;;;1.77;1.20;;;9.50;99.90;;;;;;5056545;28;20262;-81
2023/12/21 10:14:58;;;;;;;1.10;1.00;;;9.60;99.90;;;;;;5063460;28;20237;-82
2023/12/21 10:17:24;;;;;;;1.50;1.40;;;9.60;99.90;;;;;;5061568;28;20620;-82
2023/12/21 10:19:52;;;;;;;5.30;0.97;;;9.70;99.90;;;;;;5061361;28;20297;-81
2023/12/21 10:22:19;;;;;;;1.43;1.10;;;9.80;99.90;;;;;;5071116;28;20215;-81
2023/12/21 10:24:49;;;;;;;1.60;1.50;;;9.70;99.90;;;;;;5060547;28;20228;-82
2023/12/21 10:27:21;;;;;;;1.63;1.00;;;9.60;99.90;;;;;;5060613;28;20218;-82
2023/12/21 10:29:53;;;;;;;2.47;1.77;;;9.60;99.90;;;;;;5063601;28;20209;-82
2023/12/21 10:32:20;;;;;;;1.13;1.10;;;9.60;99.90;;;;;;5059747;28;20229;-82
2023/12/21 10:34:47;;;;;;;3.17;1.83;;;9.60;99.90;;;;;;5067852;28;20252;-81
2023/12/21 10:37:15;;;;;;;1.63;1.50;;;9.60;99.90;;;;;;5068108;28;20198;-81
2023/12/21 10:39:42;;;;;;;1.77;1.43;;;9.60;99.90;;;;;;5069836;28;20195;-81
2023/12/21 10:42:10;;;;;;;1.40;1.20;;;9.60;99.90;;;;;;5065787;28;20757;-80
2023/12/21 10:44:38;;;;;;;0.80;0.80;;;9.60;99.90;;;;;;5069996;28;20310;-82
2023/12/21 10:47:06;;;;;;;0.70;0.70;;;9.60;99.90;;;;;;5071015;28;20216;-81
2023/12/21 10:49:33;;;;;;;1.67;1.03;;;9.60;99.90;;;;;;5070143;28;20586;-82
2023/12/21 10:52:03;;;;;;;1.40;1.10;;;9.60;99.90;;;;;;5076413;28;20218;-81
2023/12/21 10:54:32;;;;;;;0.93;0.93;;;9.60;99.90;;;;;;5077270;28;20293;-82
2023/12/21 10:57:00;;;;;;;0.70;0.70;;;9.60;99.90;;;;;;5076061;28;20664;-79
2023/12/21 10:59:28;;;;;;;1.30;0.90;;;9.60;99.90;;;;;;5077512;28;20224;-81
2023/12/21 11:01:56;;;;;;;1.00;0.90;;;9.60;99.90;;;;;;5074057;28;20257;-81
2023/12/21 11:04:24;;;;;;;1.80;0.90;;;9.60;99.90;;;;;;5065224;28;20291;-81
2023/12/21 11:06:52;;;;;;;1.37;1.27;;;9.50;99.90;;;;;;5073806;28;20194;-82
2023/12/21 11:09:19;;;;;;;1.87;1.20;;;9.50;99.90;;;;;;5077512;28;20649;-81
2023/12/21 11:11:47;;;;;;;1.60;1.13;;;9.50;99.90;;;;;;5076831;28;20228;-81
2023/12/21 11:14:14;;;;;;;2.67;1.37;;;9.50;99.90;;;;;;5070442;28;20728;-82
2023/12/21 11:16:45;;;;;;;1.90;1.40;;;9.60;99.90;;;;;;5067411;28;20305;-81
2023/12/21 11:19:23;;;;;;;1.43;1.00;;;9.60;99.90;;;;;;5070350;28;20199;-82
2023/12/21 11:21:50;;;;;;;0.83;0.80;;;9.60;99.90;;;;;;5077058;28;20221;-82
2023/12/21 11:24:24;;;;;;;2.37;1.07;;;9.70;99.90;;;;;;5065230;28;20203;-81
2023/12/21 11:26:51;;;;;;;2.47;1.00;;;9.60;99.90;;;;;;5067917;28;20209;-82
2023/12/21 11:29:24;;;;;;;2.40;0.70;;;9.60;99.90;;;;;;5075194;28;20214;-82
2023/12/21 11:31:51;;;;;;;0.73;0.63;;;9.60;99.90;;;;;;5063914;28;20227;-81
2023/12/21 11:34:21;;;;;;;0.70;0.70;;;9.60;99.90;;;;;;5063421;28;20227;-81
2023/12/21 11:36:52;;;;;;;0.90;0.60;;;9.60;99.90;;;;;;5073288;28;20282;-80
2023/12/21 11:39:19;;;;;;;1.27;0.50;;;9.60;99.90;;;;;;5068388;28;20190;-81
2023/12/21 11:41:50;;;;;;;0.83;0.70;;;9.60;99.90;;;;;;5074031;28;20223;-81
2023/12/21 11:44:18;;;;;;;1.30;0.60;;;9.70;99.90;;;;;;5076456;28;20569;-81
2023/12/21 11:46:46;;;;;;;0.33;0.33;;;9.70;99.90;;;;;;5072861;28;20199;-81
2023/12/21 11:49:23;;;;;;;0.40;0.40;;;9.70;99.90;;;;;;5076466;28;20577;-83
2023/12/21 11:51:51;;;;;;;0.80;0.80;;;9.80;99.90;;;;;;5069293;28;20657;-81
2023/12/21 11:54:22;;;;;;;0.50;0.50;;;9.80;99.90;;;;;;5075493;28;20268;-82
2023/12/21 11:56:50;;;;;;;0.50;0.40;;;9.80;99.90;;;;;;5075628;28;20729;-84
2023/12/21 11:59:17;;;;;;;0.53;0.53;;;9.80;99.90;;;;;;5077398;28;20280;-83
2023/12/21 12:01:47;;;;;;;0.37;0.37;;;9.90;99.90;;;;;;5074135;28;20249;-81
2023/12/21 12:04:15;;;;;;;1.03;0.57;;;9.90;99.90;;;;;;5067533;28;20202;-84
2023/12/21 12:06:44;;;;;;;0.60;0.60;;;10.00;99.90;;;;;;5072635;28;20199;-84
2023/12/21 12:09:12;;;;;;;0.50;0.50;;;10.10;99.90;;;;;;5068656;28;20219;-83
2023/12/21 12:11:39;;;;;;;0.40;0.40;;;9.90;99.90;;;;;;5076594;28;20248;-83
2023/12/21 12:14:06;;;;;;;0.73;0.50;;;9.90;99.90;;;;;;5066741;28;20286;-81
2023/12/21 12:16:33;;;;;;;0.97;0.63;;;9.90;99.90;;;;;;5069006;28;20644;-82
2023/12/21 12:19:00;;;;;;;0.30;0.30;;;9.90;99.90;;;;;;5076645;28;20209;-82
2023/12/21 12:21:28;;;;;;;0.30;0.20;;;9.90;99.90;;;;;;5069716;28;20265;-82
2023/12/21 12:23:57;;;;;;;0.27;0.20;;;9.80;99.90;;;;;;5075256;28;20627;-83
2023/12/21 12:26:24;;;;;;;0.20;0.20;;;9.80;99.90;;;;;;5077115;28;20233;-85
2023/12/21 12:28:52;;;;;;;0.20;0.20;;;9.80;99.90;;;;;;5066568;28;20309;-83
2023/12/21 12:31:19;;;;;;;0.20;0.20;;;9.90;99.90;;;;;;5063053;28;20218;-83
2023/12/21 12:33:47;;;;;;;0.40;0.40;;;10.00;99.90;;;;;;5060029;28;20409;-82
2023/12/21 12:36:16;;;;;;;1.60;0.33;;;10.00;99.90;;;;;;5066462;28;21162;-84
2023/12/21 12:38:45;;;;;;;0.40;0.30;;;10.10;99.90;;;;;;5070081;28;20203;-82
2023/12/21 12:41:19;;;;;;;0.40;0.40;;;10.10;99.90;;;;;;5073005;28;20219;-81
2023/12/21 12:43:46;;;;;;;0.30;0.30;;;10.20;99.90;;;;;;5068379;28;20699;-82
2023/12/21 12:46:14;;;;;;;0.30;0.30;;;10.20;99.90;;;;;;5069454;28;20237;-81
2023/12/21 12:48:41;;;;;;;0.57;0.50;;;10.20;99.90;;;;;;5072325;28;20228;-82
2023/12/21 12:51:11;;;;;;;0.87;0.53;;;10.30;99.90;;;;;;5071761;28;20309;-80
2023/12/21 12:53:39;;;;;;;0.83;0.70;;;10.20;99.90;;;;;;5065913;28;20206;-81
2023/12/21 12:56:07;;;;;;;0.87;0.70;;;10.30;99.90;;;;;;5070781;28;20206;-82
2023/12/21 12:58:35;;;;;;;2.40;0.90;;;10.50;99.90;;;;;;5070043;28;20289;-83